Time;durP1;ratioP1;P1;durP2;ratioP2;P2;SDS_P1;SDS_P2;PMS_P1;PMS_P2;Temp;Humidity;BMP_temperature;BMP_pressure;BME280_temperature;BME280_humidity;BME280_pressure;Samples;Min_cycle;Max_cycle;Signal;HPM_P1;HPM_P2
2023/04/15 00:02:00;;;;;;;6.07;2.97;;;6.30;99.90;;;;;;5134224;27;20596;-54
2023/04/15 00:04:30;;;;;;;5.50;3.07;;;6.30;99.90;;;;;;5133932;27;20290;-55
2023/04/15 00:06:57;;;;;;;5.70;3.47;;;6.20;99.90;;;;;;5133852;27;20231;-54
2023/04/15 00:09:23;;;;;;;6.80;3.30;;;6.00;99.90;;;;;;5133716;27;20217;-54
2023/04/15 00:11:51;;;;;;;6.13;3.70;;;5.90;99.90;;;;;;5133630;27;20234;-54
2023/04/15 00:14:18;;;;;;;5.80;3.50;;;5.70;99.90;;;;;;5133327;27;20745;-54
2023/04/15 00:16:45;;;;;;;6.53;3.30;;;5.60;99.90;;;;;;5133407;27;20206;-54
2023/04/15 00:19:12;;;;;;;6.43;2.80;;;5.70;99.90;;;;;;5132967;27;20202;-55
2023/04/15 00:21:40;;;;;;;6.10;2.90;;;5.70;99.90;;;;;;5133702;27;20604;-54
2023/04/15 00:24:07;;;;;;;6.03;3.17;;;5.60;99.90;;;;;;5133551;27;20207;-54
2023/04/15 00:26:34;;;;;;;5.17;2.90;;;5.50;99.90;;;;;;5133504;27;20229;-54
2023/04/15 00:29:01;;;;;;;3.73;2.73;;;5.50;99.90;;;;;;5132990;27;20662;-54
2023/04/15 00:31:28;;;;;;;4.33;2.50;;;5.60;99.90;;;;;;5133080;27;20234;-54
2023/04/15 00:33:55;;;;;;;4.83;2.97;;;5.60;99.90;;;;;;5133080;27;20203;-54
2023/04/15 00:36:22;;;;;;;6.27;2.90;;;5.70;99.90;;;;;;5132964;27;20705;-55
2023/04/15 00:38:50;;;;;;;7.17;2.80;;;5.70;99.90;;;;;;5136840;27;20203;-54
2023/04/15 00:41:18;;;;;;;6.20;2.70;;;5.80;99.90;;;;;;5137069;27;20226;-55
2023/04/15 00:43:44;;;;;;;4.43;3.30;;;5.80;99.90;;;;;;5137434;27;20707;-54
2023/04/15 00:46:14;;;;;;;6.20;2.73;;;5.80;99.90;;;;;;5137061;27;20694;-54
2023/04/15 00:48:41;;;;;;;5.30;2.60;;;5.80;99.90;;;;;;5136947;27;20202;-54
2023/04/15 00:51:08;;;;;;;5.60;2.90;;;5.80;99.90;;;;;;5136622;27;20725;-55
2023/04/15 00:53:35;;;;;;;3.97;2.60;;;5.80;99.90;;;;;;5137144;27;20206;-55
2023/04/15 00:56:03;;;;;;;6.57;2.70;;;5.70;99.90;;;;;;5137106;27;20579;-55
2023/04/15 00:58:30;;;;;;;4.77;2.60;;;5.50;99.90;;;;;;5136754;27;20205;-56
2023/04/15 01:00:57;;;;;;;6.10;2.73;;;5.40;99.90;;;;;;5136243;27;20275;-54
2023/04/15 01:03:24;;;;;;;2.87;2.40;;;5.30;99.90;;;;;;5136657;27;20207;-56
2023/04/15 01:05:57;;;;;;;7.93;2.90;;;5.40;99.90;;;;;;5136570;27;20227;-54
2023/04/15 01:08:26;;;;;;;8.97;3.50;;;5.30;99.90;;;;;;5136367;27;20287;-54
2023/04/15 01:10:53;;;;;;;6.83;3.07;;;5.30;99.90;;;;;;5136425;27;20265;-54
2023/04/15 01:13:23;;;;;;;4.60;2.70;;;5.30;99.90;;;;;;5136242;27;20210;-54
2023/04/15 01:15:51;;;;;;;6.07;3.10;;;5.30;99.90;;;;;;5136364;27;20234;-55
2023/04/15 01:18:18;;;;;;;6.33;3.03;;;5.30;99.90;;;;;;5136445;27;20212;-55
2023/04/15 01:20:45;;;;;;;4.83;2.50;;;5.40;99.90;;;;;;5136361;27;20678;-55
2023/04/15 01:23:12;;;;;;;5.07;2.37;;;5.40;99.90;;;;;;5136349;27;20228;-55
2023/04/15 01:25:41;;;;;;;4.93;2.97;;;5.50;99.90;;;;;;5136023;27;20259;-55
2023/04/15 01:28:09;;;;;;;4.97;3.30;;;5.50;99.90;;;;;;5135774;27;20203;-54
2023/04/15 01:30:36;;;;;;;4.27;2.67;;;5.60;99.90;;;;;;5136488;27;20337;-54
2023/04/15 01:33:03;;;;;;;5.50;2.70;;;5.50;99.90;;;;;;5136021;27;20203;-54
2023/04/15 01:35:31;;;;;;;4.13;2.80;;;5.50;99.90;;;;;;5136027;27;20279;-54
2023/04/15 01:38:04;;;;;;;4.67;2.77;;;5.50;99.90;;;;;;5136259;27;20207;-54
2023/04/15 01:40:31;;;;;;;3.23;2.77;;;5.40;99.90;;;;;;5135930;27;20233;-55
2023/04/15 01:43:00;;;;;;;4.43;2.77;;;5.40;99.90;;;;;;5136005;27;20609;-55
2023/04/15 01:45:26;;;;;;;3.87;2.50;;;5.50;99.90;;;;;;5135928;27;20217;-55
2023/04/15 01:47:53;;;;;;;4.77;2.60;;;5.60;99.90;;;;;;5135468;27;20223;-54
2023/04/15 01:50:20;;;;;;;3.77;2.80;;;5.60;99.90;;;;;;5134669;27;20226;-55
2023/04/15 01:52:47;;;;;;;5.40;2.67;;;5.60;99.90;;;;;;5135599;27;20293;-54
2023/04/15 01:55:14;;;;;;;5.03;2.97;;;5.70;99.90;;;;;;5135466;27;20211;-54
2023/04/15 01:57:41;;;;;;;6.70;2.90;;;5.60;99.90;;;;;;5135753;27;20230;-54
2023/04/15 02:00:10;;;;;;;4.93;2.90;;;5.40;99.90;;;;;;5135411;27;20210;-55
2023/04/15 02:02:37;;;;;;;5.10;3.23;;;5.30;99.90;;;;;;5135625;27;20227;-55
2023/04/15 02:05:04;;;;;;;7.17;2.93;;;5.40;99.90;;;;;;5135197;27;20659;-54
2023/04/15 02:07:32;;;;;;;4.73;2.80;;;5.10;99.90;;;;;;5135232;27;20233;-55
2023/04/15 02:09:58;;;;;;;4.60;3.13;;;5.10;99.90;;;;;;5135148;27;20717;-55
2023/04/15 02:12:26;;;;;;;6.40;3.23;;;5.20;99.90;;;;;;5135536;27;20652;-55
2023/04/15 02:14:52;;;;;;;5.23;2.87;;;5.30;99.90;;;;;;5135340;27;20206;-55
2023/04/15 02:17:21;;;;;;;5.27;2.87;;;5.30;99.90;;;;;;5135306;27;20210;-55
2023/04/15 02:19:48;;;;;;;5.47;3.63;;;5.40;99.90;;;;;;5135085;27;20203;-55
2023/04/15 02:22:17;;;;;;;5.00;3.00;;;5.40;99.90;;;;;;5135355;27;20581;-55
2023/04/15 02:24:45;;;;;;;6.77;3.27;;;5.40;99.90;;;;;;5135424;27;20279;-55
2023/04/15 02:27:16;;;;;;;5.43;2.70;;;5.40;99.90;;;;;;5135022;27;20358;-55
2023/04/15 02:29:43;;;;;;;4.67;2.80;;;5.40;99.90;;;;;;5134710;27;20214;-55
2023/04/15 02:32:11;;;;;;;3.93;2.37;;;5.30;99.90;;;;;;5134510;27;20235;-55
2023/04/15 02:34:41;;;;;;;4.07;2.30;;;5.20;99.90;;;;;;5134807;27;20360;-55
2023/04/15 02:37:08;;;;;;;4.47;2.53;;;5.00;99.90;;;;;;5134520;27;20211;-55
2023/04/15 02:39:35;;;;;;;3.60;2.73;;;5.00;99.90;;;;;;5134581;27;20198;-55
2023/04/15 02:42:02;;;;;;;6.27;3.27;;;5.00;99.90;;;;;;5134351;27;20767;-55
2023/04/15 02:44:30;;;;;;;5.87;2.97;;;5.00;99.90;;;;;;5134581;27;20214;-55
2023/04/15 02:46:57;;;;;;;3.83;2.80;;;5.10;99.90;;;;;;5134405;27;20668;-54
2023/04/15 02:49:24;;;;;;;5.83;2.70;;;5.10;99.90;;;;;;5134489;27;20207;-55
2023/04/15 02:51:52;;;;;;;4.83;2.60;;;5.10;99.90;;;;;;5134752;27;20227;-54
2023/04/15 02:54:21;;;;;;;4.43;2.50;;;5.10;99.90;;;;;;5134528;27;20203;-55
2023/04/15 02:56:48;;;;;;;4.10;2.73;;;5.00;99.90;;;;;;5134577;27;20199;-55
2023/04/15 02:59:15;;;;;;;4.30;2.50;;;5.00;99.90;;;;;;5134460;27;20245;-54
2023/04/15 03:01:42;;;;;;;6.80;2.70;;;5.00;99.90;;;;;;5134090;27;20230;-55
2023/04/15 03:04:09;;;;;;;4.40;2.50;;;5.10;99.90;;;;;;5134427;27;20207;-54
2023/04/15 03:06:36;;;;;;;4.33;2.43;;;5.10;99.90;;;;;;5134249;27;20242;-54
2023/04/15 03:09:04;;;;;;;5.03;2.60;;;5.10;99.90;;;;;;5133882;27;20199;-54
2023/04/15 03:11:31;;;;;;;5.30;2.70;;;5.10;99.90;;;;;;5134085;27;20314;-54
2023/04/15 03:13:58;;;;;;;4.40;2.33;;;5.20;99.90;;;;;;5133698;27;20206;-55
2023/04/15 03:16:26;;;;;;;3.97;2.70;;;5.30;99.90;;;;;;5134199;27;20207;-54
2023/04/15 03:18:52;;;;;;;6.23;2.67;;;5.30;99.90;;;;;;5134247;27;20199;-55
2023/04/15 03:21:19;;;;;;;5.60;3.00;;;5.40;99.90;;;;;;5133768;27;20223;-55
2023/04/15 03:23:48;;;;;;;4.50;2.73;;;5.50;99.90;;;;;;5133962;27;20256;-55
2023/04/15 03:26:27;;;;;;;4.00;2.60;;;5.50;99.90;;;;;;5133824;27;20210;-55
2023/04/15 03:28:54;;;;;;;3.70;2.60;;;5.50;99.90;;;;;;5133798;27;20191;-55
2023/04/15 03:31:21;;;;;;;5.67;3.10;;;5.60;99.90;;;;;;5133607;27;20245;-54
2023/04/15 03:33:48;;;;;;;4.83;3.10;;;5.60;99.90;;;;;;5133786;27;20255;-55
2023/04/15 03:36:15;;;;;;;4.17;2.97;;;5.60;99.90;;;;;;5133509;27;20211;-54
2023/04/15 03:38:42;;;;;;;3.57;2.60;;;5.60;99.90;;;;;;5133308;27;20570;-55
2023/04/15 03:41:09;;;;;;;5.00;2.77;;;5.60;99.90;;;;;;5133282;27;20249;-54
2023/04/15 03:43:37;;;;;;;5.50;2.80;;;5.60;99.90;;;;;;5133397;27;20487;-55
2023/04/15 03:46:04;;;;;;;5.57;3.00;;;5.60;99.90;;;;;;5133134;27;20199;-54
2023/04/15 03:48:31;;;;;;;4.53;2.33;;;5.50;99.90;;;;;;5133240;27;20272;-54
2023/04/15 03:50:58;;;;;;;3.70;2.43;;;5.50;99.90;;;;;;5133508;27;20230;-54
2023/04/15 03:53:25;;;;;;;3.30;2.47;;;5.50;99.90;;;;;;5133333;27;20198;-54
2023/04/15 03:55:51;;;;;;;3.50;2.10;;;5.50;99.90;;;;;;5132945;27;20246;-55
2023/04/15 03:58:18;;;;;;;6.53;2.37;;;5.40;99.90;;;;;;5133227;27;20207;-54
2023/04/15 04:00:46;;;;;;;4.10;2.50;;;5.40;99.90;;;;;;5133078;27;20227;-54
2023/04/15 04:03:13;;;;;;;4.03;2.17;;;5.40;99.90;;;;;;5133236;27;20259;-54
2023/04/15 04:05:41;;;;;;;6.53;2.40;;;5.30;99.90;;;;;;5133017;27;20206;-54
2023/04/15 04:08:08;;;;;;;5.27;2.70;;;5.20;99.90;;;;;;5132929;27;20470;-54
2023/04/15 04:10:34;;;;;;;5.13;2.70;;;5.10;99.90;;;;;;5132767;27;20230;-54
2023/04/15 04:13:01;;;;;;;3.17;2.53;;;5.00;99.90;;;;;;5136016;27;20195;-54
2023/04/15 04:15:28;;;;;;;3.23;2.70;;;4.90;99.90;;;;;;5137479;27;20699;-54
2023/04/15 04:17:56;;;;;;;3.40;2.53;;;4.90;99.90;;;;;;5137546;27;20205;-53
2023/04/15 04:20:23;;;;;;;3.60;2.40;;;4.90;99.90;;;;;;5137484;27;20282;-53
2023/04/15 04:22:50;;;;;;;4.43;2.33;;;4.70;99.90;;;;;;5137325;27;20233;-54
2023/04/15 04:25:17;;;;;;;5.57;2.73;;;4.70;99.90;;;;;;5137359;27;20203;-53
2023/04/15 04:27:45;;;;;;;5.47;2.97;;;4.70;99.90;;;;;;5137122;27;20254;-53
2023/04/15 04:30:12;;;;;;;3.80;3.30;;;4.80;99.90;;;;;;5136823;27;20237;-54
2023/04/15 04:32:39;;;;;;;4.17;2.97;;;4.80;99.90;;;;;;5137008;27;20297;-53
2023/04/15 04:35:08;;;;;;;4.10;3.33;;;4.90;99.90;;;;;;5137194;27;20658;-54
2023/04/15 04:37:35;;;;;;;7.43;3.10;;;4.90;99.90;;;;;;5137355;27;20615;-55
2023/04/15 04:40:02;;;;;;;5.90;2.93;;;5.00;99.90;;;;;;5136947;27;20307;-55
2023/04/15 04:42:30;;;;;;;3.77;2.63;;;5.00;99.90;;;;;;5137002;27;20238;-55
2023/04/15 04:44:57;;;;;;;4.87;2.70;;;5.10;99.90;;;;;;5137156;27;20256;-55
2023/04/15 04:47:23;;;;;;;4.87;2.87;;;5.10;99.90;;;;;;5136831;27;20230;-55
2023/04/15 04:49:50;;;;;;;5.03;2.30;;;5.00;99.90;;;;;;5136725;27;20670;-55
2023/04/15 04:52:18;;;;;;;4.57;2.63;;;5.00;99.90;;;;;;5136642;27;20233;-55
2023/04/15 04:54:46;;;;;;;5.03;2.93;;;5.00;99.90;;;;;;5137227;27;20207;-55
2023/04/15 04:57:13;;;;;;;4.60;3.10;;;5.00;99.90;;;;;;5136757;27;20234;-55
2023/04/15 04:59:40;;;;;;;7.57;2.73;;;5.10;99.90;;;;;;5136366;27;20203;-55
2023/04/15 05:02:07;;;;;;;4.93;3.03;;;5.30;99.90;;;;;;5136624;27;20223;-55
2023/04/15 05:04:34;;;;;;;5.90;2.90;;;5.40;99.90;;;;;;5136888;27;20207;-55
2023/04/15 05:07:01;;;;;;;6.63;2.90;;;5.50;99.90;;;;;;5136429;27;20254;-55
2023/04/15 05:09:31;;;;;;;4.30;3.20;;;5.70;99.90;;;;;;5136278;27;20202;-55
2023/04/15 05:11:58;;;;;;;4.20;2.67;;;5.70;99.90;;;;;;5136452;27;20219;-55
2023/04/15 05:14:25;;;;;;;4.13;2.53;;;5.80;99.90;;;;;;5136234;27;20199;-55
2023/04/15 05:16:51;;;;;;;4.10;2.27;;;5.90;99.90;;;;;;5136081;27;20203;-55
2023/04/15 05:19:18;;;;;;;4.03;2.20;;;5.90;99.90;;;;;;5136206;27;20405;-59
2023/04/15 05:21:45;;;;;;;4.70;2.60;;;5.90;99.90;;;;;;5136273;27;20226;-54
2023/04/15 05:24:11;;;;;;;4.70;2.60;;;5.80;99.90;;;;;;5135970;27;20202;-55
2023/04/15 05:26:40;;;;;;;5.07;2.97;;;5.90;99.90;;;;;;5136019;27;20203;-55
2023/04/15 05:29:06;;;;;;;7.47;4.03;;;5.90;99.90;;;;;;5135617;27;20223;-54
2023/04/15 05:31:33;;;;;;;7.30;5.43;;;5.90;99.90;;;;;;5135804;27;20253;-54
2023/04/15 05:34:00;;;;;;;9.07;5.20;;;5.90;99.90;;;;;;5135862;27;20207;-55
2023/04/15 05:36:27;;;;;;;7.93;5.10;;;5.90;99.90;;;;;;5135778;27;20207;-54
2023/04/15 05:38:54;;;;;;;5.80;4.20;;;5.90;99.90;;;;;;5135596;27;20668;-54
2023/04/15 05:41:21;;;;;;;5.53;3.13;;;6.00;99.90;;;;;;5135634;27;20222;-54
2023/04/15 05:43:49;;;;;;;5.37;3.17;;;6.00;99.90;;;;;;5136156;27;20734;-54
2023/04/15 05:46:16;;;;;;;8.53;3.10;;;6.00;99.90;;;;;;5136089;27;20207;-55
2023/04/15 05:48:42;;;;;;;5.53;3.13;;;6.10;99.90;;;;;;5135992;27;20222;-55
2023/04/15 05:51:09;;;;;;;6.00;2.83;;;6.20;99.90;;;;;;5135773;27;20698;-55
2023/04/15 05:53:36;;;;;;;4.40;2.70;;;6.30;99.90;;;;;;5135718;27;20625;-54
2023/04/15 05:56:03;;;;;;;5.87;2.40;;;6.50;99.90;;;;;;5135684;27;20202;-54
2023/04/15 05:58:30;;;;;;;4.20;2.80;;;6.70;99.90;;;;;;5135208;27;20666;-57
2023/04/15 06:00:58;;;;;;;6.13;2.88;;;6.90;99.90;;;;;;5135276;27;20436;-56
2023/04/15 06:03:25;;;;;;;2.87;2.53;;;7.10;99.90;;;;;;5136594;27;20245;-58
2023/04/15 06:05:52;;;;;;;4.67;3.03;;;7.60;99.90;;;;;;5136400;27;20203;-58
2023/04/15 06:08:18;;;;;;;6.40;2.90;;;8.40;99.90;;;;;;5136454;27;20257;-58
2023/04/15 06:10:45;;;;;;;5.43;2.40;;;9.60;99.90;;;;;;5135926;27;20219;-58
2023/04/15 06:13:13;;;;;;;4.10;2.53;;;11.30;99.90;;;;;;5136873;27;20260;-59
2023/04/15 06:15:40;;;;;;;4.17;2.40;;;13.00;99.90;;;;;;5136973;27;20206;-59
2023/04/15 06:18:08;;;;;;;3.53;2.30;;;14.60;99.90;;;;;;5137327;27;20198;-59
2023/04/15 06:20:35;;;;;;;4.07;2.23;;;15.80;99.90;;;;;;5135953;27;20275;-59
2023/04/15 06:23:02;;;;;;;3.10;2.00;;;16.30;99.90;;;;;;5136609;27;20580;-59
2023/04/15 06:25:28;;;;;;;5.50;2.30;;;16.20;99.90;;;;;;5136821;27;20206;-59
2023/04/15 06:27:55;;;;;;;4.00;2.03;;;16.00;99.90;;;;;;5136154;27;20763;-60
2023/04/15 06:30:22;;;;;;;4.07;2.40;;;15.70;99.90;;;;;;5136514;27;20241;-60
2023/04/15 06:32:49;;;;;;;4.77;2.67;;;15.60;99.90;;;;;;5137087;27;20199;-60
2023/04/15 06:35:17;;;;;;;5.03;2.80;;;16.40;99.70;;;;;;5136516;27;20255;-61
2023/04/15 06:37:44;;;;;;;8.13;2.92;;;17.20;98.80;;;;;;5136842;27;20686;-61
2023/04/15 06:40:11;;;;;;;3.85;2.38;;;18.20;97.00;;;;;;5136546;27;20207;-61
2023/04/15 06:42:38;;;;;;;5.00;2.40;;;19.10;95.00;;;;;;5136396;27;20206;-61
2023/04/15 06:45:05;;;;;;;4.88;2.50;;;19.80;93.30;;;;;;5136338;27;20206;-61
2023/04/15 06:47:32;;;;;;;5.28;2.15;;;19.90;91.50;;;;;;5135758;27;20590;-61
2023/04/15 06:49:59;;;;;;;2.95;2.30;;;19.00;91.50;;;;;;5135729;27;20199;-61
2023/04/15 06:52:27;;;;;;;4.38;2.40;;;18.00;92.40;;;;;;5135605;27;20207;-61
2023/04/15 06:54:54;;;;;;;3.72;2.30;;;17.10;93.40;;;;;;5134900;27;20199;-61
2023/04/15 06:57:20;;;;;;;3.45;2.50;;;16.50;94.20;;;;;;5135552;27;20206;-61
2023/04/15 06:59:47;;;;;;;2.58;2.15;;;16.00;95.00;;;;;;5135090;27;20202;-60
2023/04/15 07:02:14;;;;;;;4.83;2.60;;;15.40;95.70;;;;;;5134920;27;20223;-61
2023/04/15 07:04:41;;;;;;;5.07;3.47;;;15.10;96.50;;;;;;5135288;27;20286;-60
2023/04/15 07:07:08;;;;;;;4.07;2.50;;;14.90;97.10;;;;;;5135780;27;20210;-60
2023/04/15 07:09:36;;;;;;;6.07;2.80;;;14.80;97.40;;;;;;5134746;27;20223;-60
2023/04/15 07:12:03;;;;;;;5.27;2.70;;;14.60;97.60;;;;;;5135378;27;20229;-61
2023/04/15 07:14:29;;;;;;;4.50;2.67;;;14.30;98.40;;;;;;5134630;27;20548;-61
2023/04/15 07:16:56;;;;;;;5.33;2.93;;;14.20;99.10;;;;;;5135424;27;20207;-60
2023/04/15 07:19:23;;;;;;;9.47;3.30;;;14.10;99.20;;;;;;5134933;27;20667;-60
2023/04/15 07:21:50;;;;;;;7.37;3.30;;;14.20;99.40;;;;;;5134695;27;20227;-60
2023/04/15 07:24:18;;;;;;;4.40;3.47;;;14.10;99.50;;;;;;5135300;27;20580;-60
2023/04/15 07:26:47;;;;;;;6.80;2.87;;;14.30;99.20;;;;;;5135339;27;20331;-60
2023/04/15 07:29:13;;;;;;;4.67;2.60;;;14.40;98.90;;;;;;5134656;27;20569;-60
2023/04/15 07:31:41;;;;;;;2.97;2.43;;;14.60;98.20;;;;;;5135646;27;20242;-61
2023/04/15 07:34:07;;;;;;;5.93;3.07;;;14.70;97.60;;;;;;5134670;27;20452;-60
2023/04/15 07:36:34;;;;;;;5.60;3.17;;;14.90;97.20;;;;;;5134344;27;20210;-60
2023/04/15 07:39:02;;;;;;;4.93;2.97;;;15.10;96.90;;;;;;5135023;27;20195;-60
2023/04/15 07:41:29;;;;;;;7.23;2.87;;;15.30;96.70;;;;;;5134401;27;20657;-56
2023/04/15 07:43:57;;;;;;;6.90;3.00;;;15.50;97.40;;;;;;5133670;27;20206;-57
2023/04/15 07:46:26;;;;;;;4.03;2.72;;;15.70;97.40;;;;;;5132530;27;20202;-57
2023/04/15 07:48:53;;;;;;;5.80;3.10;;;16.50;96.80;;;;;;5133014;27;20313;-57
2023/04/15 07:51:20;;;;;;;5.00;2.83;;;17.80;95.90;;;;;;5133457;27;20226;-57
2023/04/15 07:53:48;;;;;;;3.30;2.40;;;19.60;93.50;;;;;;5133571;27;20620;-58
2023/04/15 07:56:15;;;;;;;5.25;2.60;;;20.90;90.60;;;;;;5133516;27;20567;-58
2023/04/15 07:58:42;;;;;;;6.38;3.20;;;21.80;89.00;;;;;;5133293;27;20202;-57
2023/04/15 08:01:10;;;;;;;4.93;2.70;;;22.80;86.20;;;;;;5133564;27;20241;-58
2023/04/15 08:03:38;;;;;;;4.60;2.70;;;23.90;80.40;;;;;;5133302;27;20229;-57
2023/04/15 08:06:05;;;;;;;5.25;2.55;;;24.00;76.00;;;;;;5133471;27;20210;-58
2023/04/15 08:08:32;;;;;;;4.65;2.75;;;23.30;75.50;;;;;;5133328;27;20233;-57
2023/04/15 08:10:59;;;;;;;5.45;2.60;;;22.40;74.90;;;;;;5133069;27;20250;-60
2023/04/15 08:13:26;;;;;;;6.15;2.80;;;21.20;77.70;;;;;;5133130;27;20203;-57
2023/04/15 08:16:16;;;;;;;4.18;2.20;;;20.50;80.50;;;;;;5133077;27;20199;-57
2023/04/15 08:18:43;;;;;;;4.68;2.45;;;20.60;77.40;;;;;;5133116;27;20199;-58
2023/04/15 08:21:10;;;;;;;4.70;2.50;;;20.60;77.30;;;;;;5133204;27;20234;-57
2023/04/15 08:23:37;;;;;;;4.85;2.03;;;20.00;76.40;;;;;;5133096;27;20199;-57
2023/04/15 08:26:04;;;;;;;6.10;2.25;;;19.00;80.50;;;;;;5133246;27;20207;-57
2023/04/15 08:28:30;;;;;;;4.93;2.80;;;18.50;79.30;;;;;;5132920;27;20222;-57
2023/04/15 08:30:57;;;;;;;4.32;2.33;;;18.40;80.60;;;;;;5132390;27;20230;-57
2023/04/15 08:33:26;;;;;;;6.30;2.40;;;18.60;81.70;;;;;;5133105;27;20209;-57
2023/04/15 08:35:53;;;;;;;6.78;2.40;;;18.50;84.40;;;;;;5133011;27;20579;-57
2023/04/15 08:38:19;;;;;;;5.28;2.63;;;18.60;85.10;;;;;;5132717;27;20659;-58
2023/04/15 08:40:46;;;;;;;8.05;2.90;;;18.60;85.10;;;;;;5132531;27;20227;-57
2023/04/15 08:43:18;;;;;;;5.57;2.90;;;18.60;87.10;;;;;;5132732;27;20670;-57
2023/04/15 08:45:47;;;;;;;4.45;2.63;;;18.40;88.50;;;;;;5132737;27;20578;-58
2023/04/15 08:48:16;;;;;;;7.18;2.70;;;18.30;88.20;;;;;;5132770;27;20352;-58
2023/04/15 08:50:44;;;;;;;4.53;2.42;;;17.90;89.70;;;;;;5132487;27;20227;-57
2023/04/15 08:53:12;;;;;;;4.57;2.78;;;17.90;89.80;;;;;;5132798;27;20203;-57
2023/04/15 08:55:43;;;;;;;4.75;2.58;;;17.60;90.50;;;;;;5132717;27;20735;-57
2023/04/15 08:58:11;;;;;;;5.88;2.80;;;17.60;90.70;;;;;;5133941;27;20207;-58
2023/04/15 09:00:38;;;;;;;6.38;3.28;;;17.80;90.20;;;;;;5136478;27;20306;-57
2023/04/15 09:03:05;;;;;;;7.75;3.53;;;17.90;89.80;;;;;;5136656;27;20230;-57
2023/04/15 09:05:33;;;;;;;7.15;3.20;;;18.00;89.90;;;;;;5136343;27;20214;-58
2023/04/15 09:08:01;;;;;;;5.60;2.80;;;18.10;89.70;;;;;;5136584;27;20234;-57
2023/04/15 09:10:28;;;;;;;3.78;2.75;;;18.40;89.10;;;;;;5136267;27;20234;-58
2023/04/15 09:12:55;;;;;;;6.43;3.10;;;18.50;88.60;;;;;;5136548;27;20203;-57
2023/04/15 09:15:24;;;;;;;6.28;2.65;;;18.70;88.50;;;;;;5136642;27;20202;-57
2023/04/15 09:17:51;;;;;;;4.13;2.50;;;18.70;89.40;;;;;;5136339;27;20247;-57
2023/04/15 09:20:18;;;;;;;6.53;2.50;;;18.70;88.90;;;;;;5136271;27;20242;-57
2023/04/15 09:22:46;;;;;;;5.13;2.78;;;18.60;89.30;;;;;;5136268;27;20199;-57
2023/04/15 09:25:30;;;;;;;5.15;2.92;;;18.50;89.00;;;;;;5136386;27;20209;-57
2023/04/15 09:27:59;;;;;;;4.75;2.53;;;18.60;88.70;;;;;;5136282;27;20298;-57
2023/04/15 09:30:27;;;;;;;5.63;4.00;;;18.50;88.60;;;;;;5135768;27;20237;-57
2023/04/15 09:32:55;;;;;;;6.10;2.90;;;18.30;89.80;;;;;;5135941;27;20298;-57
2023/04/15 09:35:23;;;;;;;5.10;2.22;;;18.50;89.40;;;;;;5135923;27;20211;-57
2023/04/15 09:37:51;;;;;;;4.57;2.33;;;18.60;88.40;;;;;;5136056;27;20198;-57
2023/04/15 09:40:33;;;;;;;4.05;2.60;;;18.50;88.00;;;;;;5135703;27;20252;-57
2023/04/15 09:43:01;;;;;;;5.65;2.38;;;18.50;89.60;;;;;;5135920;27;20203;-57
2023/04/15 09:45:28;;;;;;;6.78;2.85;;;18.60;88.70;;;;;;5135647;27;20207;-57
2023/04/15 09:47:57;;;;;;;4.47;2.78;;;18.80;88.90;;;;;;5135477;27;20582;-56
2023/04/15 09:50:28;;;;;;;5.40;2.70;;;19.10;86.30;;;;;;5135492;27;20249;-57
2023/04/15 09:52:55;;;;;;;3.47;2.42;;;19.20;84.80;;;;;;5135966;27;20629;-57
2023/04/15 09:55:22;;;;;;;6.07;3.47;;;19.10;86.00;;;;;;5135522;27;20215;-57
2023/04/15 09:57:50;;;;;;;4.75;2.55;;;19.20;85.60;;;;;;5135536;27;20263;-57
2023/04/15 10:00:18;;;;;;;4.80;2.50;;;19.40;84.10;;;;;;5135193;27;20226;-57
2023/04/15 10:02:47;;;;;;;3.35;2.40;;;19.40;83.30;;;;;;5135660;27;20191;-57
2023/04/15 10:05:15;;;;;;;4.30;2.80;;;19.20;81.40;;;;;;5135397;27;20294;-57
2023/04/15 10:07:42;;;;;;;4.93;2.70;;;19.30;84.10;;;;;;5135613;27;20222;-58
2023/04/15 10:10:10;;;;;;;3.10;2.13;;;19.50;83.40;;;;;;5133962;27;20261;-58
2023/04/15 10:12:38;;;;;;;4.07;2.25;;;19.60;81.80;;;;;;5135048;27;20199;-57
2023/04/15 10:15:14;;;;;;;4.53;2.38;;;19.50;80.10;;;;;;5135234;27;20206;-57
2023/04/15 10:17:44;;;;;;;6.78;2.58;;;19.30;81.00;;;;;;5135426;27;20195;-57
2023/04/15 10:20:13;;;;;;;5.53;2.33;;;19.40;82.40;;;;;;5135092;27;20198;-56
2023/04/15 10:22:41;;;;;;;5.10;2.20;;;19.40;78.80;;;;;;5134995;27;20211;-58
2023/04/15 10:25:10;;;;;;;3.97;2.30;;;19.30;78.70;;;;;;5135054;27;20571;-57
2023/04/15 10:27:39;;;;;;;7.40;2.60;;;19.30;77.20;;;;;;5135016;27;20294;-57
2023/04/15 10:30:09;;;;;;;3.17;2.20;;;19.10;77.60;;;;;;5123763;27;20219;-58
2023/04/15 10:32:36;;;;;;;4.13;2.17;;;19.20;77.20;;;;;;5113507;27;20204;-57
2023/04/15 10:35:03;;;;;;;4.53;2.22;;;19.10;78.20;;;;;;5113535;28;20211;-58
2023/04/15 10:37:35;;;;;;;4.03;2.40;;;18.90;78.20;;;;;;5114446;28;20203;-57
2023/04/15 10:40:26;;;;;;;6.05;2.60;;;18.90;79.50;;;;;;5113665;28;20260;-59
2023/04/15 10:42:54;;;;;;;3.92;2.42;;;19.00;78.90;;;;;;5113935;28;20294;-57
2023/04/15 10:45:26;;;;;;;4.75;2.40;;;19.40;79.00;;;;;;5113565;28;20297;-58
2023/04/15 10:47:55;;;;;;;6.55;3.60;;;19.60;77.20;;;;;;5112746;28;20746;-58
2023/04/15 10:50:22;;;;;;;4.60;2.45;;;19.90;77.60;;;;;;5112799;28;20239;-57
2023/04/15 10:52:51;;;;;;;4.47;2.38;;;19.90;76.10;;;;;;5113340;28;20214;-58
2023/04/15 10:55:22;;;;;;;2.85;2.20;;;19.70;76.60;;;;;;5113199;28;20271;-57
2023/04/15 10:57:53;;;;;;;8.30;5.43;;;19.50;77.90;;;;;;5113245;28;20207;-57
2023/04/15 11:00:24;;;;;;;6.25;2.70;;;19.40;79.60;;;;;;5112423;28;20219;-57
2023/04/15 11:02:53;;;;;;;3.78;2.25;;;19.50;79.30;;;;;;5112980;28;20207;-57
2023/04/15 11:05:22;;;;;;;3.88;2.28;;;19.80;77.90;;;;;;5113199;28;20214;-57
2023/04/15 11:07:52;;;;;;;4.10;2.47;;;19.80;72.90;;;;;;5113135;28;20204;-57
2023/04/15 11:10:52;;;;;;;6.10;2.55;;;19.70;74.10;;;;;;5112646;28;20230;-57
2023/04/15 11:13:26;;;;;;;4.30;2.40;;;19.80;76.60;;;;;;5111955;28;20627;-57
2023/04/15 11:16:02;;;;;;;5.10;2.63;;;20.10;76.30;;;;;;5112803;28;20299;-57
2023/04/15 11:18:33;;;;;;;4.57;2.90;;;20.20;74.70;;;;;;5112801;28;20191;-58
2023/04/15 11:21:03;;;;;;;3.35;2.30;;;19.90;73.00;;;;;;5112835;28;20220;-60
2023/04/15 11:23:32;;;;;;;4.30;2.35;;;19.70;74.40;;;;;;5112838;28;20204;-59
2023/04/15 11:26:01;;;;;;;3.83;2.65;;;19.40;75.10;;;;;;5113526;28;20221;-57
2023/04/15 11:28:29;;;;;;;5.20;2.90;;;19.30;74.90;;;;;;5113389;28;20211;-58
2023/04/15 11:30:58;;;;;;;3.78;2.40;;;18.70;74.20;;;;;;5112225;28;20231;-58
2023/04/15 11:33:25;;;;;;;4.03;2.33;;;18.30;75.60;;;;;;5113521;28;20199;-59
2023/04/15 11:35:54;;;;;;;4.10;2.40;;;18.10;77.90;;;;;;5113152;28;20683;-61
2023/04/15 11:38:21;;;;;;;4.88;2.40;;;18.00;77.40;;;;;;5112636;28;20199;-59
2023/04/15 11:40:50;;;;;;;4.55;2.58;;;17.90;78.80;;;;;;5113498;27;20276;-61
2023/04/15 11:43:19;;;;;;;5.93;2.83;;;18.00;79.80;;;;;;5113698;28;20239;-59
2023/04/15 11:45:51;;;;;;;4.47;2.30;;;18.10;79.20;;;;;;5113657;28;20203;-61
2023/04/15 11:48:21;;;;;;;3.97;2.80;;;18.00;79.40;;;;;;5112824;28;20207;-59
2023/04/15 11:50:53;;;;;;;4.03;2.40;;;17.70;80.40;;;;;;5112727;28;20554;-59
2023/04/15 11:53:20;;;;;;;6.00;2.75;;;17.60;81.40;;;;;;5111918;28;20295;-58
2023/04/15 11:55:49;;;;;;;3.00;2.22;;;17.60;81.50;;;;;;5112199;28;20589;-58
2023/04/15 11:58:17;;;;;;;5.50;2.50;;;17.40;81.60;;;;;;5111260;28;20284;-57
2023/04/15 12:00:48;;;;;;;2.72;2.35;;;17.20;81.80;;;;;;5112178;28;20223;-58
2023/04/15 12:03:19;;;;;;;5.30;2.90;;;17.10;83.10;;;;;;5111888;28;20227;-59
2023/04/15 12:06:17;;;;;;;4.90;2.45;;;17.10;82.40;;;;;;5112081;28;20210;-58
2023/04/15 12:09:07;;;;;;;4.50;2.83;;;17.00;84.50;;;;;;5112214;28;20206;-58
2023/04/15 12:11:36;;;;;;;10.55;6.55;;;17.10;85.10;;;;;;5112315;28;20228;-60
2023/04/15 12:14:09;;;;;;;5.85;2.58;;;16.90;85.20;;;;;;5112278;28;20226;-59
2023/04/15 12:16:39;;;;;;;4.55;3.00;;;16.90;84.40;;;;;;5113067;28;20203;-59
2023/04/15 12:19:10;;;;;;;4.60;2.63;;;16.60;84.20;;;;;;5111612;28;20587;-59
2023/04/15 12:21:39;;;;;;;3.97;2.60;;;16.30;85.80;;;;;;5112093;28;20603;-60
2023/04/15 12:24:08;;;;;;;3.93;2.13;;;16.20;87.10;;;;;;5111793;28;20238;-59
2023/04/15 12:26:37;;;;;;;8.05;3.10;;;16.00;79.30;;;;;;5112263;28;20545;-60
2023/04/15 12:29:05;;;;;;;4.45;2.13;;;16.10;80.00;;;;;;5111985;28;20247;-58
2023/04/15 12:31:32;;;;;;;4.80;2.28;;;16.00;81.60;;;;;;5111757;28;20254;-60
2023/04/15 12:34:02;;;;;;;4.37;2.27;;;16.10;82.50;;;;;;5114719;28;20218;-59
2023/04/15 12:36:35;;;;;;;3.08;1.98;;;16.10;82.50;;;;;;5115920;28;20600;-58
2023/04/15 12:39:02;;;;;;;4.30;1.90;;;16.00;80.60;;;;;;5116006;28;20241;-59
2023/04/15 12:41:29;;;;;;;2.00;1.63;;;15.90;76.70;;;;;;5115978;27;20254;-59
2023/04/15 12:43:56;;;;;;;2.53;1.57;;;15.90;73.60;;;;;;5115783;28;20227;-59
2023/04/15 12:46:23;;;;;;;2.77;1.60;;;15.70;71.10;;;;;;5115936;27;20253;-57
2023/04/15 12:48:50;;;;;;;3.80;1.70;;;15.80;76.30;;;;;;5116238;28;20203;-60
2023/04/15 12:51:17;;;;;;;2.78;1.50;;;15.80;76.60;;;;;;5115542;28;20702;-58
2023/04/15 12:53:46;;;;;;;2.28;1.70;;;16.00;77.30;;;;;;5114184;28;20207;-58
2023/04/15 12:56:13;;;;;;;3.20;1.93;;;16.10;82.90;;;;;;5131432;27;20211;-58
2023/04/15 12:58:40;;;;;;;5.70;2.00;;;16.10;85.20;;;;;;5136117;27;20203;-58